createdAt,value
2017-04-05T00:00:39.902Z,35.00
2017-04-05T00:01:38.244Z,35.07
2017-04-05T00:02:37.385Z,35.57
2017-04-05T00:03:35.631Z,33.77
2017-04-05T00:04:34.649Z,38.07
2017-04-05T00:05:33.759Z,37.75
2017-04-05T00:06:32.009Z,36.82
2017-04-05T00:07:30.731Z,37.07
2017-04-05T00:08:29.797Z,37.33
2017-04-05T00:09:28.110Z,36.47
2017-04-05T00:10:26.356Z,37.90
2017-04-05T00:11:24.751Z,37.18
2017-04-05T00:12:23.793Z,36.40
2017-04-05T00:13:22.042Z,40.03
2017-04-05T00:14:21.070Z,37.78
2017-04-05T00:15:19.501Z,38.27
2017-04-05T00:16:18.526Z,39.87
2017-04-05T00:17:19.594Z,40.57
2017-04-05T00:18:18.629Z,37.58
2017-04-05T00:19:17.670Z,38.55
2017-04-05T00:20:16.680Z,36.57
2017-04-05T00:21:15.697Z,42.20
2017-04-05T00:22:13.951Z,38.73
2017-04-05T00:23:13.062Z,39.68
2017-04-05T00:24:11.361Z,38.75
2017-04-05T00:25:09.627Z,38.73
2017-04-05T00:26:07.946Z,38.85
2017-04-05T00:27:06.204Z,35.18
2017-04-05T00:28:04.493Z,36.22
2017-04-05T00:29:02.861Z,35.38
2017-04-05T00:30:01.896Z,36.88
2017-04-05T00:31:00.154Z,35.17
2017-04-05T00:31:59.207Z,35.43
2017-04-05T00:32:57.454Z,37.35
2017-04-05T00:33:55.727Z,35.52
2017-04-05T00:34:54.307Z,37.33
2017-04-05T00:35:52.617Z,33.82
2017-04-05T00:36:50.872Z,35.73
2017-04-05T00:37:49.166Z,33.93
2017-04-05T00:38:48.192Z,37.73
2017-04-05T00:39:46.470Z,38.00
2017-04-05T00:40:44.790Z,34.52
2017-04-05T00:41:43.041Z,36.70
2017-04-05T00:42:41.401Z,37.48
2017-04-05T00:43:39.666Z,34.82
2017-04-05T00:44:37.925Z,36.18
2017-04-05T00:45:36.177Z,35.58
2017-04-05T00:46:34.558Z,36.67
2017-04-05T00:47:32.902Z,35.40
2017-04-05T00:48:31.172Z,33.77
2017-04-05T00:49:29.475Z,36.20
2017-04-05T00:50:28.534Z,33.22
2017-04-05T00:51:26.782Z,37.07
2017-04-05T00:52:25.161Z,36.68
2017-04-05T00:53:23.430Z,38.90
2017-04-05T00:54:21.722Z,36.15
2017-04-05T00:55:19.999Z,37.48
2017-04-05T00:56:18.253Z,37.65
2017-04-05T00:57:16.540Z,39.37
2017-04-05T00:58:14.885Z,36.60
2017-04-05T00:59:13.150Z,37.90
2017-04-05T01:00:11.403Z,37.35
2017-04-05T01:01:09.758Z,39.42
2017-04-05T01:02:08.052Z,38.13
2017-04-05T01:03:06.331Z,41.20
2017-04-05T01:04:04.705Z,43.77
2017-04-05T01:05:02.995Z,45.65
2017-04-05T01:06:01.299Z,45.55
2017-04-05T01:06:59.548Z,43.87
2017-04-05T01:07:58.572Z,43.83
2017-04-05T01:08:57.602Z,46.60
2017-04-05T01:09:56.224Z,42.93
2017-04-05T01:10:55.254Z,45.07
2017-04-05T01:11:53.517Z,44.73
2017-04-05T01:12:51.754Z,42.02
2017-04-05T01:13:50.767Z,44.22
2017-04-05T01:14:49.019Z,46.00
2017-04-05T01:15:47.376Z,45.40
2017-04-05T01:16:45.636Z,41.50
2017-04-05T01:17:43.923Z,41.17
2017-04-05T01:18:42.953Z,41.92
2017-04-05T01:19:41.237Z,41.63
2017-04-05T01:20:39.509Z,45.68
2017-04-05T01:21:37.863Z,40.42
2017-04-05T01:22:36.130Z,41.70
2017-04-05T01:23:35.186Z,41.40
2017-04-05T01:24:33.451Z,43.13
2017-04-05T01:25:32.553Z,42.98
2017-04-05T01:26:30.835Z,42.50
2017-04-05T01:27:29.117Z,42.82
2017-04-05T01:28:28.173Z,41.68
2017-04-05T01:29:27.182Z,41.75
2017-04-05T01:30:26.210Z,41.72
2017-04-05T01:31:24.554Z,42.20
2017-04-05T01:32:22.802Z,41.12
2017-04-05T01:33:21.067Z,40.43
2017-04-05T01:34:19.326Z,41.05
2017-04-05T01:35:17.589Z,39.92
2017-04-05T01:36:15.874Z,40.45
2017-04-05T01:37:14.237Z,43.62
2017-04-05T01:38:12.514Z,40.93
2017-04-05T01:39:10.779Z,39.97
2017-04-05T01:40:09.038Z,38.42
2017-04-05T01:41:07.320Z,42.20
2017-04-05T01:42:05.609Z,39.68
2017-04-05T01:43:04.846Z,40.45
2017-04-05T01:44:03.115Z,39.85
2017-04-05T01:45:02.141Z,40.87
2017-04-05T01:46:00.377Z,39.30
2017-04-05T01:46:59.402Z,37.33
2017-04-05T01:47:57.673Z,38.70
2017-04-05T01:48:55.991Z,37.78
2017-04-05T01:49:54.249Z,36.50
2017-04-05T01:50:53.277Z,37.32
2017-04-05T01:51:52.325Z,37.68
2017-04-05T01:52:50.578Z,37.10
2017-04-05T01:53:49.766Z,38.63
2017-04-05T01:54:48.166Z,37.25
2017-04-05T01:55:46.453Z,38.08
2017-04-05T01:56:45.498Z,37.63
2017-04-05T01:57:44.520Z,34.90
2017-04-05T01:58:42.785Z,40.87
2017-04-05T01:59:41.809Z,35.53
2017-04-05T02:00:40.165Z,39.65
2017-04-05T02:01:38.519Z,36.58
2017-04-05T02:02:37.537Z,38.60
2017-04-05T02:03:35.794Z,39.22
2017-04-05T02:04:34.051Z,37.80
2017-04-05T02:05:32.314Z,39.32
2017-04-05T02:06:30.674Z,40.65
2017-04-05T02:07:28.949Z,38.07
2017-04-05T02:08:27.970Z,41.32
2017-04-05T02:09:27.001Z,37.62
2017-04-05T02:10:25.307Z,41.60
2017-04-05T02:11:23.607Z,40.25
2017-04-05T02:12:22.781Z,41.82
2017-04-05T02:13:21.030Z,42.15
2017-04-05T02:14:19.298Z,38.83
2017-04-05T02:15:17.758Z,39.27
2017-04-05T02:16:16.048Z,40.37
2017-04-05T02:17:14.304Z,41.38
2017-04-05T02:18:12.642Z,39.55
2017-04-05T02:19:10.941Z,37.68
2017-04-05T02:20:09.246Z,38.37
2017-04-05T02:21:07.954Z,40.52
2017-04-05T02:22:06.211Z,39.65
2017-04-05T02:23:05.321Z,40.10
2017-04-05T02:24:03.682Z,39.45
2017-04-05T02:25:02.004Z,39.78
2017-04-05T02:26:01.109Z,38.77
2017-04-05T02:26:59.386Z,39.50
2017-04-05T02:27:57.636Z,40.20
2017-04-05T02:28:55.920Z,42.10
2017-04-05T02:29:54.966Z,41.27
2017-04-05T02:30:53.220Z,39.20
2017-04-05T02:31:51.551Z,36.92
2017-04-05T02:32:49.825Z,38.37
2017-04-05T02:33:48.090Z,37.65
2017-04-05T02:34:46.376Z,41.05
2017-04-05T02:35:45.391Z,40.18
2017-04-05T02:36:44.413Z,37.92
2017-04-05T02:37:42.760Z,40.05
2017-04-05T02:38:41.029Z,38.33
2017-04-05T02:39:39.291Z,38.47
2017-04-05T02:40:37.654Z,38.50
2017-04-05T02:41:35.918Z,38.87
2017-04-05T02:42:34.957Z,40.87
2017-04-05T02:43:34.081Z,40.42
2017-04-05T02:44:33.086Z,40.45
2017-04-05T02:45:32.133Z,38.88
2017-04-05T02:46:31.174Z,40.43
2017-04-05T02:47:29.420Z,37.20
2017-04-05T02:48:27.693Z,36.37
2017-04-05T02:49:26.011Z,38.87
2017-04-05T02:50:24.321Z,39.63
2017-04-05T02:51:22.566Z,37.73
2017-04-05T02:52:21.594Z,40.07
2017-04-05T02:53:20.617Z,38.85
2017-04-05T02:54:19.622Z,40.28
2017-04-05T02:55:18.738Z,38.58
2017-04-05T02:56:17.762Z,38.48
2017-04-05T02:57:16.812Z,38.00
2017-04-05T02:58:16.190Z,39.77
2017-04-05T02:59:14.451Z,40.27
2017-04-05T03:00:12.728Z,38.05
2017-04-05T03:01:11.062Z,38.62
2017-04-05T03:02:09.355Z,37.63
2017-04-05T03:03:07.621Z,37.27
2017-04-05T03:04:05.882Z,37.23
2017-04-05T03:05:04.219Z,37.75
2017-04-05T03:06:02.477Z,35.72
2017-04-05T03:07:01.599Z,39.42
2017-04-05T03:07:59.893Z,38.92
2017-04-05T03:08:58.913Z,39.55
2017-04-05T03:09:57.195Z,36.88
2017-04-05T03:10:56.212Z,33.63
2017-04-05T03:11:55.228Z,37.38
2017-04-05T03:12:53.601Z,35.28
2017-04-05T03:13:51.857Z,38.23
2017-04-05T03:14:50.901Z,35.27
2017-04-05T03:15:49.149Z,35.03
2017-04-05T03:16:48.182Z,39.63
2017-04-05T03:17:47.198Z,33.62
2017-04-05T03:18:46.373Z,33.12
2017-04-05T03:19:44.627Z,33.08
2017-04-05T03:20:43.670Z,33.37
2017-04-05T03:21:41.935Z,36.25
2017-04-05T03:22:41.031Z,34.47
2017-04-05T03:23:39.317Z,33.97
2017-04-05T03:24:38.424Z,33.53
2017-04-05T03:25:37.443Z,31.32
2017-04-05T03:26:35.718Z,29.72
2017-04-05T03:27:33.958Z,29.62
2017-04-05T03:28:32.982Z,30.07
2017-04-05T03:29:31.230Z,30.27
2017-04-05T03:30:29.583Z,32.12
2017-04-05T03:31:27.875Z,31.85
2017-04-05T03:32:26.921Z,28.43
2017-04-05T03:33:25.234Z,25.20
2017-04-05T03:34:23.504Z,26.35
2017-04-05T03:35:21.849Z,28.55
2017-04-05T03:36:20.221Z,26.07
2017-04-05T03:37:18.502Z,26.85
2017-04-05T03:38:17.564Z,28.97
2017-04-05T03:39:16.637Z,26.42
2017-04-05T03:40:14.894Z,29.15
2017-04-05T03:41:13.138Z,25.93
2017-04-05T03:42:11.449Z,26.22
2017-04-05T03:43:09.722Z,25.52
2017-04-05T03:44:07.991Z,25.68
2017-04-05T03:45:06.258Z,24.78
2017-04-05T03:46:05.284Z,19.93
2017-04-05T03:47:04.310Z,20.33
2017-04-05T03:48:03.454Z,19.12
2017-04-05T03:49:01.713Z,21.02
2017-04-05T03:50:00.753Z,21.73
2017-04-05T03:50:59.830Z,21.07
2017-04-05T03:51:58.098Z,21.67
2017-04-05T03:52:56.363Z,19.22
2017-04-05T03:53:55.466Z,20.12
2017-04-05T03:54:54.530Z,20.93
2017-04-05T03:55:53.542Z,18.83
2017-04-05T03:56:51.791Z,21.10
2017-04-05T03:57:50.055Z,19.92
2017-04-05T03:58:48.354Z,18.47
2017-04-05T03:59:47.461Z,20.32
2017-04-05T04:00:45.726Z,20.58
2017-04-05T04:01:43.989Z,20.85
2017-04-05T04:02:42.237Z,19.33
2017-04-05T04:03:40.505Z,20.20
2017-04-05T04:04:38.767Z,20.00
2017-04-05T04:05:37.154Z,21.25
2017-04-05T04:06:36.313Z,19.18
2017-04-05T04:07:35.350Z,17.63
2017-04-05T04:08:33.619Z,19.23
2017-04-05T04:09:32.629Z,18.12
2017-04-05T04:10:30.886Z,18.07
2017-04-05T04:11:29.232Z,16.78
2017-04-05T04:12:27.499Z,17.68
2017-04-05T04:13:27.260Z,19.12
2017-04-05T04:14:26.294Z,19.12
2017-04-05T04:15:25.323Z,19.63
2017-04-05T04:16:23.581Z,16.65
2017-04-05T04:17:22.022Z,18.05
2017-04-05T04:18:20.310Z,19.95
2017-04-05T04:19:19.358Z,16.18
2017-04-05T04:20:17.631Z,18.47
2017-04-05T04:21:15.894Z,19.28
2017-04-05T04:22:14.181Z,18.63
2017-04-05T04:23:12.515Z,17.08
2017-04-05T04:24:11.534Z,19.05
2017-04-05T04:25:10.562Z,19.47
2017-04-05T04:26:09.577Z,17.62
2017-04-05T04:27:07.842Z,21.85
2017-04-05T04:28:06.168Z,19.42
2017-04-05T04:29:05.265Z,18.87
2017-04-05T04:30:04.308Z,16.80
2017-04-05T04:31:02.586Z,18.67
2017-04-05T04:32:00.892Z,16.07
2017-04-05T04:32:59.149Z,15.78
2017-04-05T04:33:57.393Z,15.97
2017-04-05T04:34:55.754Z,14.08
2017-04-05T04:35:54.073Z,16.87
2017-04-05T04:36:52.334Z,16.48
2017-04-05T04:37:50.602Z,14.17
2017-04-05T04:38:48.880Z,16.97
2017-04-05T04:39:47.149Z,15.12
2017-04-05T04:40:45.483Z,17.68
2017-04-05T04:41:44.492Z,15.78
2017-04-05T04:42:42.829Z,17.35
2017-04-05T04:43:41.077Z,14.97
2017-04-05T04:44:39.318Z,16.30
2017-04-05T04:45:37.567Z,14.80
2017-04-05T04:46:35.916Z,17.38
2017-04-05T04:47:34.185Z,15.47
2017-04-05T04:48:32.436Z,16.02
2017-04-05T04:49:30.678Z,14.72
2017-04-05T04:50:28.961Z,15.28
2017-04-05T04:51:27.235Z,14.97
2017-04-05T04:52:25.604Z,16.68
2017-04-05T04:53:24.606Z,17.53
2017-04-05T04:54:22.881Z,14.12
2017-04-05T04:55:21.202Z,14.80
2017-04-05T04:56:19.462Z,15.67
2017-04-05T04:57:18.485Z,15.33
2017-04-05T04:58:16.855Z,15.82
2017-04-05T04:59:15.178Z,17.55
2017-04-05T05:00:13.434Z,18.75
2017-04-05T05:01:11.695Z,17.17
2017-04-05T05:02:10.696Z,16.75
2017-04-05T05:03:09.727Z,16.20
2017-04-05T05:04:08.103Z,16.88
2017-04-05T05:05:07.125Z,17.53
2017-04-05T05:06:05.386Z,17.43
2017-04-05T05:07:03.656Z,17.45
2017-04-05T05:08:01.957Z,19.95
2017-04-05T05:09:00.225Z,18.23
2017-04-05T05:09:58.574Z,20.50
2017-04-05T05:10:56.840Z,19.08
2017-04-05T05:11:55.094Z,22.42
2017-04-05T05:12:54.108Z,18.67
2017-04-05T05:13:52.381Z,20.33
2017-04-05T05:14:50.654Z,21.67
2017-04-05T05:15:48.992Z,22.33
2017-04-05T05:16:48.027Z,19.80
2017-04-05T05:17:46.299Z,21.62
2017-04-05T05:18:44.562Z,22.45
2017-04-05T05:19:42.822Z,20.57
2017-04-05T05:20:41.068Z,22.22
2017-04-05T05:21:39.434Z,25.98
2017-04-05T05:22:38.470Z,22.15
2017-04-05T05:23:36.754Z,21.85
2017-04-05T05:24:35.017Z,22.75
2017-04-05T05:25:33.293Z,23.32
2017-04-05T05:26:31.550Z,23.33
2017-04-05T05:27:30.673Z,22.65
2017-04-05T05:28:28.960Z,22.98
2017-04-05T05:29:27.234Z,22.15
2017-04-05T05:30:26.280Z,23.03
2017-04-05T05:31:24.557Z,20.43
2017-04-05T05:32:23.611Z,20.57
2017-04-05T05:33:21.976Z,23.17
2017-04-05T05:34:20.278Z,21.35
2017-04-05T05:35:18.611Z,21.72
2017-04-05T05:36:16.871Z,20.43
2017-04-05T05:37:15.164Z,21.45
2017-04-05T05:38:13.438Z,20.75
2017-04-05T05:39:11.794Z,20.97
2017-04-05T05:40:10.094Z,19.57
2017-04-05T05:41:08.442Z,20.62
2017-04-05T05:42:06.724Z,20.88
2017-04-05T05:43:05.749Z,21.82
2017-04-05T05:44:04.023Z,19.73
2017-04-05T05:45:02.398Z,20.57
2017-04-05T05:46:00.898Z,19.93
2017-04-05T05:46:59.150Z,21.63
2017-04-05T05:47:57.405Z,19.73
2017-04-05T05:48:55.723Z,19.90
2017-04-05T05:49:54.003Z,18.88
2017-04-05T05:50:53.158Z,17.53
2017-04-05T05:51:51.408Z,18.17
2017-04-05T05:52:49.661Z,17.50
2017-04-05T05:53:47.933Z,18.48
2017-04-05T05:54:47.005Z,19.70
2017-04-05T05:55:45.299Z,19.13
2017-04-05T05:56:43.644Z,18.98
2017-04-05T05:57:41.976Z,18.53
2017-04-05T05:58:41.016Z,19.35
2017-04-05T05:59:39.331Z,18.48
2017-04-05T06:00:37.604Z,18.43
2017-04-05T06:01:35.866Z,18.53
2017-04-05T06:02:34.259Z,17.40
2017-04-05T06:03:32.533Z,16.90
2017-04-05T06:04:30.862Z,18.70
2017-04-05T06:05:29.098Z,17.37
2017-04-05T06:06:27.359Z,17.42
2017-04-05T06:07:25.634Z,17.23
2017-04-05T06:08:23.966Z,15.75
2017-04-05T06:09:22.318Z,16.48
2017-04-05T06:10:20.627Z,17.78
2017-04-05T06:11:19.674Z,17.22
2017-04-05T06:12:17.940Z,16.35
2017-04-05T06:13:16.963Z,15.22
2017-04-05T06:14:15.333Z,15.17
2017-04-05T06:15:13.580Z,16.20
2017-04-05T06:16:11.842Z,15.40
2017-04-05T06:17:10.123Z,15.08
2017-04-05T06:18:08.483Z,16.40
2017-04-05T06:19:06.734Z,14.03
2017-04-05T06:20:05.131Z,15.53
2017-04-05T06:21:03.415Z,14.82
2017-04-05T06:22:01.702Z,13.28
2017-04-05T06:22:59.998Z,14.77
2017-04-05T06:23:58.260Z,16.55
2017-04-05T06:24:56.521Z,13.23
2017-04-05T06:25:55.669Z,13.73
2017-04-05T06:26:53.962Z,14.43
2017-04-05T06:27:52.451Z,14.42
2017-04-05T06:28:50.741Z,13.32
2017-04-05T06:29:49.010Z,14.30
2017-04-05T06:30:47.266Z,14.67
2017-04-05T06:31:45.622Z,14.08
2017-04-05T06:32:43.966Z,13.42
2017-04-05T06:33:43.030Z,13.00
2017-04-05T06:34:41.321Z,13.07
2017-04-05T06:35:39.611Z,13.30
2017-04-05T06:36:37.871Z,13.08
2017-04-05T06:37:36.207Z,13.72
2017-04-05T06:38:34.471Z,14.68
2017-04-05T06:39:32.788Z,12.08
2017-04-05T06:40:31.114Z,12.93
2017-04-05T06:41:29.389Z,13.97
2017-04-05T06:42:28.434Z,12.95
2017-04-05T06:43:26.811Z,12.20
2017-04-05T06:44:25.192Z,12.90
2017-04-05T06:45:23.491Z,12.50
2017-04-05T06:46:21.747Z,11.38
2017-04-05T06:47:20.010Z,12.58
2017-04-05T06:48:18.275Z,11.08
2017-04-05T06:49:17.399Z,11.28
2017-04-05T06:50:15.706Z,13.55
2017-04-05T06:51:13.986Z,12.82
2017-04-05T06:52:12.276Z,11.72
2017-04-05T06:53:10.526Z,12.75
2017-04-05T06:54:08.795Z,11.57
2017-04-05T06:55:07.341Z,12.50
2017-04-05T06:56:05.595Z,12.47
2017-04-05T06:57:03.874Z,11.80
2017-04-05T06:58:02.138Z,11.85
2017-04-05T06:59:00.385Z,11.45
2017-04-05T06:59:59.425Z,11.43
2017-04-05T07:00:57.782Z,10.73
2017-04-05T07:01:56.066Z,10.85
2017-04-05T07:03:00.197Z,12.18
2017-04-05T07:03:58.471Z,11.57
2017-04-05T07:04:56.814Z,10.68
2017-04-05T07:05:55.089Z,10.97
2017-04-05T07:06:53.452Z,12.17
2017-04-05T07:07:51.738Z,10.90
2017-04-05T07:08:50.779Z,11.17
2017-04-05T07:09:49.060Z,9.93
2017-04-05T07:10:47.357Z,10.72
2017-04-05T07:11:45.633Z,11.23
2017-04-05T07:12:44.024Z,10.92
2017-04-05T07:13:42.282Z,10.35
2017-04-05T07:14:40.536Z,10.53
2017-04-05T07:15:38.831Z,10.42
2017-04-05T07:16:37.109Z,10.77
2017-04-05T07:17:35.414Z,11.28
2017-04-05T07:18:33.767Z,10.48
2017-04-05T07:19:32.013Z,10.75
2017-04-05T07:20:30.282Z,11.35
2017-04-05T07:21:28.582Z,10.87
2017-04-05T07:22:26.853Z,10.12
2017-04-05T07:23:25.149Z,11.87
2017-04-05T07:24:24.271Z,11.70
2017-04-05T07:25:22.538Z,12.13
2017-04-05T07:26:20.825Z,11.95
2017-04-05T07:27:19.858Z,10.53
2017-04-05T07:28:18.887Z,10.07
2017-04-05T07:29:17.136Z,10.55
2017-04-05T07:30:15.473Z,11.42
2017-04-05T07:31:13.716Z,12.25
2017-04-05T07:32:12.002Z,10.87
2017-04-05T07:33:10.339Z,10.10
2017-04-05T07:34:08.598Z,9.58
2017-04-05T07:35:06.938Z,8.88
2017-04-05T07:36:05.399Z,8.83
2017-04-05T07:37:03.655Z,6.50
2017-04-05T07:38:01.928Z,9.73
2017-04-05T07:39:00.198Z,8.08
2017-04-05T07:39:58.464Z,8.50
2017-04-05T07:40:56.743Z,9.05
2017-04-05T07:41:55.065Z,8.12
2017-04-05T07:42:53.410Z,7.40
2017-04-05T07:43:51.658Z,6.63
2017-04-05T07:44:49.920Z,7.17
2017-04-05T07:45:48.180Z,7.22
2017-04-05T07:46:46.446Z,7.20
2017-04-05T07:47:44.807Z,7.72
2017-04-05T07:48:43.098Z,6.53
2017-04-05T07:49:41.366Z,6.28
2017-04-05T07:50:39.627Z,6.28
2017-04-05T07:51:37.906Z,5.57
2017-04-05T07:52:36.162Z,5.82
2017-04-05T07:53:34.526Z,5.55
2017-04-05T07:54:32.779Z,5.68
2017-04-05T07:55:31.037Z,4.70
2017-04-05T07:56:29.344Z,6.07
2017-04-05T07:57:27.606Z,5.18
2017-04-05T07:58:25.867Z,5.37
2017-04-05T07:59:24.215Z,5.88
2017-04-05T08:00:22.566Z,3.97
2017-04-05T08:01:20.900Z,4.15
2017-04-05T08:02:19.929Z,4.37
2017-04-05T08:03:22.315Z,4.52
2017-04-05T08:04:23.121Z,3.83
2017-04-05T08:05:21.393Z,4.37
2017-04-05T08:06:19.662Z,4.05
2017-04-05T08:07:17.934Z,4.48
2017-04-05T08:08:16.206Z,4.63
2017-04-05T08:09:14.604Z,5.42
2017-04-05T08:10:12.954Z,3.82
2017-04-05T08:11:11.205Z,5.15
2017-04-05T08:12:09.501Z,4.72
2017-04-05T08:13:08.551Z,3.88
2017-04-05T08:14:06.821Z,3.60
2017-04-05T08:15:05.077Z,4.45
2017-04-05T08:16:03.509Z,4.68
2017-04-05T08:17:02.587Z,4.17
2017-04-05T08:18:01.647Z,3.52
2017-04-05T08:18:59.932Z,3.67
2017-04-05T08:19:58.219Z,2.88
2017-04-05T08:20:57.301Z,3.32
2017-04-05T08:21:55.737Z,3.25
2017-04-05T08:22:54.002Z,3.45
2017-04-05T08:23:52.311Z,3.33
2017-04-05T08:24:50.568Z,3.52
2017-04-05T08:25:48.840Z,4.47
2017-04-05T08:26:47.102Z,2.82
2017-04-05T08:27:45.434Z,3.63
2017-04-05T08:28:44.925Z,3.98
2017-04-05T08:29:43.228Z,2.57
2017-04-05T08:30:41.883Z,3.10
2017-04-05T08:31:40.133Z,2.12
2017-04-05T08:32:39.161Z,3.02
2017-04-05T08:33:37.522Z,3.02
2017-04-05T08:34:35.781Z,3.17
2017-04-05T08:35:34.142Z,2.93
2017-04-05T08:36:32.431Z,2.50
2017-04-05T08:37:30.694Z,2.22
2017-04-05T08:38:28.954Z,2.73
2017-04-05T08:39:27.289Z,2.90
2017-04-05T08:40:25.546Z,2.75
2017-04-05T08:41:23.818Z,2.40
2017-04-05T08:42:22.099Z,2.03
2017-04-05T08:43:20.384Z,2.55
2017-04-05T08:44:18.662Z,3.28
2017-04-05T08:45:17.803Z,1.67
2017-04-05T08:46:16.830Z,2.78
2017-04-05T08:47:15.086Z,3.67
2017-04-05T08:48:13.383Z,2.60
2017-04-05T08:49:11.641Z,2.35
2017-04-05T08:50:09.930Z,2.17
2017-04-05T08:51:08.312Z,2.68
2017-04-05T08:52:06.583Z,2.60
2017-04-05T08:53:04.959Z,2.52
2017-04-05T08:54:03.235Z,2.55
2017-04-05T08:55:02.038Z,2.53
2017-04-05T08:56:00.333Z,2.83
2017-04-05T08:56:58.681Z,2.05
2017-04-05T08:57:56.966Z,1.97
2017-04-05T08:58:55.251Z,2.00
2017-04-05T08:59:53.525Z,1.78
2017-04-05T09:00:51.836Z,2.37
2017-04-05T09:01:50.122Z,2.08
2017-04-05T09:02:48.505Z,1.82
2017-04-05T09:03:47.543Z,1.80
2017-04-05T09:04:45.815Z,2.82
2017-04-05T09:05:44.265Z,1.90
2017-04-05T09:06:42.606Z,1.90
2017-04-05T09:07:40.894Z,2.15
2017-04-05T09:08:39.226Z,2.33
2017-04-05T09:09:37.481Z,1.87
2017-04-05T09:10:35.742Z,1.55
2017-04-05T09:11:34.802Z,2.12
2017-04-05T09:12:33.156Z,1.90
2017-04-05T09:13:31.416Z,1.87
2017-04-05T09:14:29.766Z,1.80
2017-04-05T09:15:28.010Z,2.33
2017-04-05T09:16:26.467Z,1.75
2017-04-05T09:17:24.825Z,1.40
2017-04-05T09:18:23.266Z,2.47
2017-04-05T09:19:21.543Z,1.57
2017-04-05T09:20:19.883Z,2.42
2017-04-05T09:21:18.157Z,1.67
2017-04-05T09:22:16.405Z,1.83
2017-04-05T09:23:15.454Z,1.88
2017-04-05T09:24:13.723Z,2.50
2017-04-05T09:25:12.001Z,2.17
2017-04-05T09:26:10.388Z,2.33
2017-04-05T09:27:08.631Z,1.82
2017-04-05T09:28:06.923Z,1.82
2017-04-05T09:29:05.196Z,1.88
2017-04-05T09:30:03.479Z,2.70
2017-04-05T09:31:01.771Z,1.98
2017-04-05T09:32:00.121Z,2.03
2017-04-05T09:32:58.392Z,1.93
2017-04-05T09:33:56.662Z,2.32
2017-04-05T09:34:54.930Z,2.13
2017-04-05T09:35:53.963Z,1.43
2017-04-05T09:36:52.216Z,1.82
2017-04-05T09:37:51.570Z,2.00
2017-04-05T09:38:49.883Z,1.78
2017-04-05T09:39:48.147Z,1.88
2017-04-05T09:40:46.402Z,1.83
2017-04-05T09:41:45.422Z,1.73
2017-04-05T09:42:43.683Z,1.68
2017-04-05T09:43:42.368Z,1.98
2017-04-05T09:44:40.662Z,1.62
2017-04-05T09:45:38.912Z,1.53
2017-04-05T09:46:37.944Z,1.60
2017-04-05T09:47:36.181Z,1.95
2017-04-05T09:48:34.430Z,1.50
2017-04-05T09:49:33.530Z,1.50
2017-04-05T09:50:31.811Z,1.18
2017-04-05T09:51:30.074Z,1.62
2017-04-05T09:52:28.334Z,1.57
2017-04-05T09:53:26.595Z,2.10
2017-04-05T09:54:24.878Z,1.23
2017-04-05T09:55:24.034Z,2.00
2017-04-05T09:56:22.327Z,1.30
2017-04-05T09:57:20.606Z,1.88
2017-04-05T09:58:18.873Z,1.43
2017-04-05T09:59:17.901Z,1.43
2017-04-05T10:00:16.169Z,1.60
2017-04-05T10:01:14.590Z,2.15
2017-04-05T10:02:12.875Z,1.83
2017-04-05T10:03:11.155Z,1.55
2017-04-05T10:04:09.410Z,1.45
2017-04-05T10:05:07.654Z,1.50
2017-04-05T10:06:05.907Z,1.80
2017-04-05T10:07:04.263Z,1.62
2017-04-05T10:08:02.606Z,1.53
2017-04-05T10:09:00.910Z,2.00
2017-04-05T10:09:59.157Z,1.78
2017-04-05T10:10:57.423Z,1.83
2017-04-05T10:11:55.763Z,1.85
2017-04-05T10:12:54.108Z,2.17
2017-04-05T10:13:52.371Z,1.48
2017-04-05T10:14:50.683Z,1.55
2017-04-05T10:15:48.946Z,1.67
2017-04-05T10:16:47.211Z,1.82
2017-04-05T10:17:45.507Z,2.05
2017-04-05T10:18:43.867Z,2.03
2017-04-05T10:19:42.148Z,1.35
2017-04-05T10:20:40.416Z,1.85
2017-04-05T10:21:38.670Z,1.37
2017-04-05T10:22:36.937Z,1.98
2017-04-05T10:23:35.186Z,1.27
2017-04-05T10:24:33.566Z,2.03
2017-04-05T10:25:31.834Z,3.15
2017-04-05T10:26:30.103Z,1.47
2017-04-05T10:27:29.147Z,1.67
2017-04-05T10:28:27.406Z,1.67
2017-04-05T10:29:25.702Z,1.62
2017-04-05T10:30:24.065Z,2.33
2017-04-05T10:31:22.319Z,1.45
2017-04-05T10:32:21.343Z,1.23
2017-04-05T10:33:19.654Z,1.42
2017-04-05T10:34:17.940Z,1.80
2017-04-05T10:35:16.221Z,1.35
2017-04-05T10:36:14.923Z,1.67
2017-04-05T10:37:13.163Z,1.65
2017-04-05T10:38:11.434Z,1.83
2017-04-05T10:39:09.711Z,1.48
2017-04-05T10:40:07.998Z,2.05
2017-04-05T10:41:06.342Z,2.05
2017-04-05T10:42:04.718Z,1.37
2017-04-05T10:43:03.034Z,1.72
2017-04-05T10:44:01.310Z,2.10
2017-04-05T10:44:59.607Z,1.68
2017-04-05T10:45:57.915Z,1.77
2017-04-05T10:46:56.179Z,1.72
2017-04-05T10:47:54.514Z,1.23
2017-04-05T10:48:53.619Z,2.07
2017-04-05T10:49:51.931Z,2.17
2017-04-05T10:50:50.180Z,1.48
2017-04-05T10:51:48.449Z,1.67
2017-04-05T10:52:46.735Z,1.68
2017-04-05T10:53:45.191Z,1.82
2017-04-05T10:54:43.472Z,1.38
2017-04-05T10:55:41.766Z,1.37
2017-04-05T10:56:40.035Z,2.15
2017-04-05T10:57:38.315Z,1.87
2017-04-05T10:58:36.684Z,1.30
2017-04-05T10:59:35.042Z,1.33
2017-04-05T11:00:34.141Z,1.75
2017-04-05T11:01:32.492Z,1.40
2017-04-05T11:02:30.781Z,2.10
2017-04-05T11:03:29.034Z,1.92
2017-04-05T11:04:27.400Z,1.70
2017-04-05T11:05:25.678Z,1.87
2017-04-05T11:06:23.934Z,1.32
2017-04-05T11:07:22.195Z,1.98
2017-04-05T11:08:21.258Z,1.67
2017-04-05T11:09:20.298Z,1.67
2017-04-05T11:10:18.711Z,1.32
2017-04-05T11:11:17.000Z,1.48
2017-04-05T11:12:15.259Z,1.82
2017-04-05T11:13:13.567Z,1.75
2017-04-05T11:14:11.835Z,2.27
2017-04-05T11:15:10.102Z,1.60
2017-04-05T11:16:08.470Z,1.28
2017-04-05T11:17:06.761Z,1.83
2017-04-05T11:18:05.064Z,1.42
2017-04-05T11:19:03.322Z,2.10
2017-04-05T11:20:01.600Z,1.40
2017-04-05T11:20:59.921Z,1.62
2017-04-05T11:21:58.259Z,1.67
2017-04-05T11:22:56.518Z,1.98
2017-04-05T11:23:54.939Z,1.40
2017-04-05T11:24:53.223Z,2.08
2017-04-05T11:25:51.519Z,2.52
2017-04-05T11:26:49.780Z,1.93
2017-04-05T11:27:48.131Z,1.90
2017-04-05T11:28:46.419Z,1.60
2017-04-05T11:29:44.678Z,1.47
2017-04-05T11:30:42.930Z,1.90
2017-04-05T11:31:41.954Z,1.95
2017-04-05T11:32:40.201Z,1.90
2017-04-05T11:33:38.554Z,1.92
2017-04-05T11:34:36.828Z,1.80
2017-04-05T11:35:35.886Z,1.63
2017-04-05T11:36:34.224Z,2.08
2017-04-05T11:37:32.518Z,2.20
2017-04-05T11:38:31.633Z,1.87
2017-04-05T11:39:29.969Z,1.60
2017-04-05T11:40:28.249Z,2.02
2017-04-05T11:41:27.283Z,1.93
2017-04-05T11:42:25.579Z,1.70
2017-04-05T11:43:23.920Z,2.18
2017-04-05T11:44:22.198Z,1.78
2017-04-05T11:45:20.514Z,1.98
2017-04-05T11:46:19.526Z,2.03
2017-04-05T11:47:18.334Z,1.50
2017-04-05T11:48:16.614Z,1.57
2017-04-05T11:49:15.645Z,1.60
2017-04-05T11:50:13.917Z,1.87
2017-04-05T11:51:12.343Z,1.70
2017-04-05T11:52:11.383Z,1.82
2017-04-05T11:53:09.641Z,1.73
2017-04-05T11:54:07.899Z,2.03
2017-04-05T11:55:06.191Z,2.00
2017-04-05T11:56:05.249Z,1.58
2017-04-05T11:57:03.602Z,1.52
2017-04-05T11:58:01.893Z,2.63
2017-04-05T11:59:00.156Z,1.92
2017-04-05T11:59:58.465Z,1.93
2017-04-05T12:00:56.778Z,1.90
2017-04-05T12:01:55.077Z,2.73
2017-04-05T12:02:54.368Z,1.80
2017-04-05T12:03:52.674Z,1.75
2017-04-05T12:04:50.950Z,2.30
2017-04-05T12:05:49.241Z,1.87
2017-04-05T12:06:48.281Z,2.33
2017-04-05T12:07:47.324Z,1.90
2017-04-05T12:08:46.511Z,1.90
2017-04-05T12:09:45.550Z,1.45
2017-04-05T12:10:43.862Z,1.67
2017-04-05T12:11:42.142Z,1.50
2017-04-05T12:12:40.430Z,2.03
2017-04-05T12:13:38.731Z,2.17
2017-04-05T12:14:37.089Z,2.17
2017-04-05T12:15:35.354Z,1.88
2017-04-05T12:16:33.620Z,1.93
2017-04-05T12:17:32.650Z,2.00
2017-04-05T12:18:30.909Z,1.98
2017-04-05T12:19:29.980Z,2.27
2017-04-05T12:20:28.402Z,1.63
2017-04-05T12:21:26.670Z,1.92
2017-04-05T12:22:24.934Z,1.85
2017-04-05T12:23:23.204Z,1.75
2017-04-05T12:24:22.220Z,1.87
2017-04-05T12:25:20.509Z,2.08
2017-04-05T12:26:18.898Z,2.25
2017-04-05T12:27:17.955Z,2.12
2017-04-05T12:28:16.435Z,2.10
2017-04-05T12:29:15.502Z,2.07
2017-04-05T12:30:13.786Z,1.88
2017-04-05T12:31:12.822Z,2.77
2017-04-05T12:32:11.224Z,2.47
2017-04-05T12:33:09.491Z,3.23
2017-04-05T12:34:07.836Z,2.30
2017-04-05T12:35:06.100Z,2.32
2017-04-05T12:36:04.399Z,1.77
2017-04-05T12:37:03.444Z,1.90
2017-04-05T12:38:02.246Z,1.70
2017-04-05T12:39:00.506Z,1.90
2017-04-05T12:39:58.786Z,2.28
2017-04-05T12:40:57.917Z,1.63
2017-04-05T12:41:56.182Z,2.17
2017-04-05T12:44:50.284Z,1.98
2017-04-05T12:45:48.563Z,2.43